sensor_id;sensor_type;location;lat;lon;timestamp;temperature;humidity
76567;DHT22;65428;53.194;6.132;2023-11-18T00:00:24;2.20;99.90
76567;DHT22;65428;53.194;6.132;2023-11-18T00:02:50;2.20;99.90
76567;DHT22;65428;53.194;6.132;2023-11-18T00:05:16;2.30;99.90
76567;DHT22;65428;53.194;6.132;2023-11-18T00:07:43;2.10;99.90
76567;DHT22;65428;53.194;6.132;2023-11-18T00:10:09;2.20;99.90
76567;DHT22;65428;53.194;6.132;2023-11-18T00:12:36;2.20;99.90
76567;DHT22;65428;53.194;6.132;2023-11-18T00:15:05;2.00;99.90
76567;DHT22;65428;53.194;6.132;2023-11-18T00:17:34;2.20;99.90
76567;DHT22;65428;53.194;6.132;2023-11-18T00:19:59;2.20;99.90
76567;DHT22;65428;53.194;6.132;2023-11-18T00:22:25;2.40;99.90
76567;DHT22;65428;53.194;6.132;2023-11-18T00:24:53;2.20;99.90
76567;DHT22;65428;53.194;6.132;2023-11-18T00:27:21;2.20;99.90
76567;DHT22;65428;53.194;6.132;2023-11-18T00:29:48;2.20;99.90
76567;DHT22;65428;53.194;6.132;2023-11-18T00:32:13;2.40;99.90
76567;DHT22;65428;53.194;6.132;2023-11-18T00:34:39;2.20;99.90
76567;DHT22;65428;53.194;6.132;2023-11-18T00:37:05;2.50;99.90
76567;DHT22;65428;53.194;6.132;2023-11-18T00:39:31;2.70;99.90
76567;DHT22;65428;53.194;6.132;2023-11-18T00:41:56;2.40;99.90
76567;DHT22;65428;53.194;6.132;2023-11-18T00:44:22;2.30;99.90
76567;DHT22;65428;53.194;6.132;2023-11-18T00:46:48;2.60;99.90
76567;DHT22;65428;53.194;6.132;2023-11-18T00:49:13;2.20;99.90
76567;DHT22;65428;53.194;6.132;2023-11-18T00:51:39;2.30;99.90
76567;DHT22;65428;53.194;6.132;2023-11-18T00:54:07;2.30;99.90
76567;DHT22;65428;53.194;6.132;2023-11-18T00:56:33;2.10;99.90
76567;DHT22;65428;53.194;6.132;2023-11-18T00:58:58;2.40;99.90
76567;DHT22;65428;53.194;6.132;2023-11-18T01:01:24;2.30;99.90
76567;DHT22;65428;53.194;6.132;2023-11-18T01:03:50;2.20;99.90
76567;DHT22;65428;53.194;6.132;2023-11-18T01:06:16;2.20;99.90
76567;DHT22;65428;53.194;6.132;2023-11-18T01:08:45;2.30;99.90
76567;DHT22;65428;53.194;6.132;2023-11-18T01:11:10;2.20;99.90
76567;DHT22;65428;53.194;6.132;2023-11-18T01:13:37;2.10;99.90
76567;DHT22;65428;53.194;6.132;2023-11-18T01:16:03;2.40;99.90
76567;DHT22;65428;53.194;6.132;2023-11-18T01:18:30;2.20;99.90
76567;DHT22;65428;53.194;6.132;2023-11-18T01:20:56;2.40;99.90
76567;DHT22;65428;53.194;6.132;2023-11-18T01:23:21;2.20;99.90
76567;DHT22;65428;53.194;6.132;2023-11-18T01:25:47;2.20;99.90
76567;DHT22;65428;53.194;6.132;2023-11-18T01:28:16;2.20;99.90
76567;DHT22;65428;53.194;6.132;2023-11-18T01:30:42;2.30;99.90
76567;DHT22;65428;53.194;6.132;2023-11-18T01:33:10;2.50;99.90
76567;DHT22;65428;53.194;6.132;2023-11-18T01:35:36;2.30;99.90
76567;DHT22;65428;53.194;6.132;2023-11-18T01:38:02;2.30;99.90
76567;DHT22;65428;53.194;6.132;2023-11-18T01:40:28;2.40;99.90
76567;DHT22;65428;53.194;6.132;2023-11-18T01:42:56;2.60;99.90
76567;DHT22;65428;53.194;6.132;2023-11-18T01:45:22;2.40;99.90
76567;DHT22;65428;53.194;6.132;2023-11-18T01:47:48;2.40;99.90
76567;DHT22;65428;53.194;6.132;2023-11-18T01:50:14;2.60;99.90
76567;DHT22;65428;53.194;6.132;2023-11-18T01:52:43;2.40;99.90
76567;DHT22;65428;53.194;6.132;2023-11-18T01:55:10;2.70;99.90
76567;DHT22;65428;53.194;6.132;2023-11-18T01:57:36;2.60;99.90
76567;DHT22;65428;53.194;6.132;2023-11-18T02:00:03;2.60;99.90
76567;DHT22;65428;53.194;6.132;2023-11-18T02:02:32;2.70;99.90
76567;DHT22;65428;53.194;6.132;2023-11-18T02:04:59;2.70;99.90
76567;DHT22;65428;53.194;6.132;2023-11-18T02:07:28;2.90;99.90
76567;DHT22;65428;53.194;6.132;2023-11-18T02:09:54;2.70;99.90
76567;DHT22;65428;53.194;6.132;2023-11-18T02:14:53;2.70;99.90
76567;DHT22;65428;53.194;6.132;2023-11-18T02:17:22;2.90;99.90
76567;DHT22;65428;53.194;6.132;2023-11-18T02:19:51;3.00;99.90
76567;DHT22;65428;53.194;6.132;2023-11-18T02:22:18;2.90;99.90
76567;DHT22;65428;53.194;6.132;2023-11-18T02:24:43;3.20;99.90
76567;DHT22;65428;53.194;6.132;2023-11-18T02:27:09;2.80;99.90
76567;DHT22;65428;53.194;6.132;2023-11-18T02:29:40;3.00;99.90
76567;DHT22;65428;53.194;6.132;2023-11-18T02:32:20;3.10;99.90
76567;DHT22;65428;53.194;6.132;2023-11-18T02:35:29;2.90;99.90
76567;DHT22;65428;53.194;6.132;2023-11-18T02:37:57;2.90;99.90
76567;DHT22;65428;53.194;6.132;2023-11-18T02:40:46;2.90;99.90
76567;DHT22;65428;53.194;6.132;2023-11-18T02:43:14;2.90;99.90
76567;DHT22;65428;53.194;6.132;2023-11-18T02:45:41;2.90;99.90
76567;DHT22;65428;53.194;6.132;2023-11-18T02:48:07;3.10;99.90
76567;DHT22;65428;53.194;6.132;2023-11-18T02:50:32;3.00;99.90
76567;DHT22;65428;53.194;6.132;2023-11-18T02:53:00;3.10;99.90
76567;DHT22;65428;53.194;6.132;2023-11-18T02:55:26;3.10;99.90
76567;DHT22;65428;53.194;6.132;2023-11-18T02:57:52;3.30;99.90
76567;DHT22;65428;53.194;6.132;2023-11-18T03:00:18;3.30;99.90
76567;DHT22;65428;53.194;6.132;2023-11-18T03:02:44;3.20;99.90
76567;DHT22;65428;53.194;6.132;2023-11-18T03:05:11;3.50;99.90
76567;DHT22;65428;53.194;6.132;2023-11-18T03:07:38;3.10;99.90
76567;DHT22;65428;53.194;6.132;2023-11-18T03:10:04;3.40;99.90
76567;DHT22;65428;53.194;6.132;2023-11-18T03:12:36;3.40;99.90
76567;DHT22;65428;53.194;6.132;2023-11-18T03:15:05;3.50;99.90
76567;DHT22;65428;53.194;6.132;2023-11-18T03:17:31;3.40;99.90
76567;DHT22;65428;53.194;6.132;2023-11-18T03:19:56;3.60;99.90
76567;DHT22;65428;53.194;6.132;2023-11-18T03:22:22;4.00;99.90
76567;DHT22;65428;53.194;6.132;2023-11-18T03:24:49;3.70;99.90
76567;DHT22;65428;53.194;6.132;2023-11-18T03:27:14;3.50;99.90
76567;DHT22;65428;53.194;6.132;2023-11-18T03:29:40;4.00;99.90
76567;DHT22;65428;53.194;6.132;2023-11-18T03:32:09;3.90;99.90
76567;DHT22;65428;53.194;6.132;2023-11-18T03:34:37;3.70;99.90
76567;DHT22;65428;53.194;6.132;2023-11-18T03:37:03;3.80;99.90
76567;DHT22;65428;53.194;6.132;2023-11-18T03:39:29;3.70;99.90
76567;DHT22;65428;53.194;6.132;2023-11-18T03:41:54;3.70;99.90
76567;DHT22;65428;53.194;6.132;2023-11-18T03:44:23;3.90;99.90
76567;DHT22;65428;53.194;6.132;2023-11-18T03:46:51;3.70;99.90
76567;DHT22;65428;53.194;6.132;2023-11-18T03:49:17;3.80;99.90
76567;DHT22;65428;53.194;6.132;2023-11-18T03:51:43;3.80;99.90
76567;DHT22;65428;53.194;6.132;2023-11-18T03:54:09;3.90;99.90
76567;DHT22;65428;53.194;6.132;2023-11-18T03:56:34;3.80;99.90
76567;DHT22;65428;53.194;6.132;2023-11-18T03:59:00;4.00;99.90
76567;DHT22;65428;53.194;6.132;2023-11-18T04:01:26;4.00;99.90
76567;DHT22;65428;53.194;6.132;2023-11-18T04:03:55;4.00;99.90
76567;DHT22;65428;53.194;6.132;2023-11-18T04:06:21;4.00;99.90
76567;DHT22;65428;53.194;6.132;2023-11-18T04:08:48;3.90;99.90
76567;DHT22;65428;53.194;6.132;2023-11-18T04:11:14;4.00;99.90
76567;DHT22;65428;53.194;6.132;2023-11-18T04:13:43;4.00;99.90
76567;DHT22;65428;53.194;6.132;2023-11-18T04:16:16;3.90;99.90
76567;DHT22;65428;53.194;6.132;2023-11-18T04:18:43;3.90;99.90
76567;DHT22;65428;53.194;6.132;2023-11-18T04:21:10;4.10;99.90
76567;DHT22;65428;53.194;6.132;2023-11-18T04:23:40;4.20;99.90
76567;DHT22;65428;53.194;6.132;2023-11-18T04:26:07;4.20;99.90
76567;DHT22;65428;53.194;6.132;2023-11-18T04:28:33;4.10;99.90
76567;DHT22;65428;53.194;6.132;2023-11-18T04:30:59;4.10;99.90
76567;DHT22;65428;53.194;6.132;2023-11-18T04:33:26;4.90;99.90
76567;DHT22;65428;53.194;6.132;2023-11-18T04:35:52;4.30;99.90
76567;DHT22;65428;53.194;6.132;2023-11-18T04:38:18;4.30;99.90
76567;DHT22;65428;53.194;6.132;2023-11-18T04:40:44;4.10;99.90
76567;DHT22;65428;53.194;6.132;2023-11-18T04:43:14;4.30;99.90
76567;DHT22;65428;53.194;6.132;2023-11-18T04:45:43;4.30;99.90
76567;DHT22;65428;53.194;6.132;2023-11-18T04:48:09;4.40;99.90
76567;DHT22;65428;53.194;6.132;2023-11-18T04:50:35;4.50;99.90
76567;DHT22;65428;53.194;6.132;2023-11-18T04:53:01;4.50;99.90
76567;DHT22;65428;53.194;6.132;2023-11-18T04:55:28;4.50;99.90
76567;DHT22;65428;53.194;6.132;2023-11-18T04:57:54;4.50;99.90
76567;DHT22;65428;53.194;6.132;2023-11-18T05:00:21;4.60;99.90
76567;DHT22;65428;53.194;6.132;2023-11-18T05:02:47;4.50;99.90
76567;DHT22;65428;53.194;6.132;2023-11-18T05:05:16;4.30;99.90
76567;DHT22;65428;53.194;6.132;2023-11-18T05:07:42;4.80;99.90
76567;DHT22;65428;53.194;6.132;2023-11-18T05:10:09;4.50;99.90
76567;DHT22;65428;53.194;6.132;2023-11-18T05:12:36;4.60;99.90
76567;DHT22;65428;53.194;6.132;2023-11-18T05:15:03;4.70;99.90
76567;DHT22;65428;53.194;6.132;2023-11-18T05:17:30;4.60;99.90
76567;DHT22;65428;53.194;6.132;2023-11-18T05:19:55;4.80;99.90
76567;DHT22;65428;53.194;6.132;2023-11-18T05:22:21;4.70;99.90
76567;DHT22;65428;53.194;6.132;2023-11-18T05:24:47;4.60;99.90
76567;DHT22;65428;53.194;6.132;2023-11-18T05:27:14;4.70;99.90
76567;DHT22;65428;53.194;6.132;2023-11-18T05:29:40;4.50;99.90
76567;DHT22;65428;53.194;6.132;2023-11-18T05:32:10;4.70;99.90
76567;DHT22;65428;53.194;6.132;2023-11-18T05:34:36;4.60;99.90
76567;DHT22;65428;53.194;6.132;2023-11-18T05:37:02;4.80;99.90
76567;DHT22;65428;53.194;6.132;2023-11-18T05:39:27;4.80;99.90
76567;DHT22;65428;53.194;6.132;2023-11-18T05:41:59;4.80;99.90
76567;DHT22;65428;53.194;6.132;2023-11-18T05:44:25;4.70;99.90
76567;DHT22;65428;53.194;6.132;2023-11-18T05:47:03;4.70;99.90
76567;DHT22;65428;53.194;6.132;2023-11-18T05:49:29;4.60;99.90
76567;DHT22;65428;53.194;6.132;2023-11-18T05:51:54;4.60;99.90
76567;DHT22;65428;53.194;6.132;2023-11-18T05:54:21;4.90;99.90
76567;DHT22;65428;53.194;6.132;2023-11-18T05:56:50;4.70;99.90
76567;DHT22;65428;53.194;6.132;2023-11-18T05:59:16;4.70;99.90
76567;DHT22;65428;53.194;6.132;2023-11-18T06:01:43;4.70;99.90
76567;DHT22;65428;53.194;6.132;2023-11-18T06:04:08;4.60;99.90
76567;DHT22;65428;53.194;6.132;2023-11-18T06:06:34;4.60;99.90
76567;DHT22;65428;53.194;6.132;2023-11-18T06:09:00;4.50;99.90
76567;DHT22;65428;53.194;6.132;2023-11-18T06:11:30;4.80;99.90
76567;DHT22;65428;53.194;6.132;2023-11-18T06:13:57;4.80;99.90
76567;DHT22;65428;53.194;6.132;2023-11-18T06:16:24;4.90;99.90
76567;DHT22;65428;53.194;6.132;2023-11-18T06:18:52;4.80;99.90
76567;DHT22;65428;53.194;6.132;2023-11-18T06:21:26;4.80;99.90
76567;DHT22;65428;53.194;6.132;2023-11-18T06:23:56;4.80;99.90
76567;DHT22;65428;53.194;6.132;2023-11-18T06:26:23;5.10;99.90
76567;DHT22;65428;53.194;6.132;2023-11-18T06:28:53;4.80;99.90
76567;DHT22;65428;53.194;6.132;2023-11-18T06:31:20;4.80;99.90
76567;DHT22;65428;53.194;6.132;2023-11-18T06:33:47;4.80;99.90
76567;DHT22;65428;53.194;6.132;2023-11-18T06:38:52;5.20;99.90
76567;DHT22;65428;53.194;6.132;2023-11-18T06:41:20;4.90;99.90
76567;DHT22;65428;53.194;6.132;2023-11-18T06:43:48;5.10;99.90
76567;DHT22;65428;53.194;6.132;2023-11-18T06:46:25;4.90;99.90
76567;DHT22;65428;53.194;6.132;2023-11-18T06:48:53;5.10;99.90
76567;DHT22;65428;53.194;6.132;2023-11-18T06:51:29;5.20;99.90
76567;DHT22;65428;53.194;6.132;2023-11-18T06:53:56;5.00;99.90
76567;DHT22;65428;53.194;6.132;2023-11-18T06:56:26;5.20;99.90
76567;DHT22;65428;53.194;6.132;2023-11-18T06:58:52;5.40;99.90
76567;DHT22;65428;53.194;6.132;2023-11-18T07:01:18;5.00;99.90
76567;DHT22;65428;53.194;6.132;2023-11-18T07:03:44;5.10;99.90
76567;DHT22;65428;53.194;6.132;2023-11-18T07:06:11;5.10;99.90
76567;DHT22;65428;53.194;6.132;2023-11-18T07:08:39;5.00;99.90
76567;DHT22;65428;53.194;6.132;2023-11-18T07:11:05;5.00;99.90
76567;DHT22;65428;53.194;6.132;2023-11-18T07:13:32;5.00;99.90
76567;DHT22;65428;53.194;6.132;2023-11-18T07:15:59;5.10;99.90
76567;DHT22;65428;53.194;6.132;2023-11-18T07:18:28;5.00;99.90
76567;DHT22;65428;53.194;6.132;2023-11-18T07:20:58;5.10;99.90
76567;DHT22;65428;53.194;6.132;2023-11-18T07:23:24;4.90;99.90
76567;DHT22;65428;53.194;6.132;2023-11-18T07:25:55;5.20;99.90
76567;DHT22;65428;53.194;6.132;2023-11-18T07:28:25;5.10;99.90
76567;DHT22;65428;53.194;6.132;2023-11-18T07:30:52;5.30;99.90
76567;DHT22;65428;53.194;6.132;2023-11-18T07:33:19;5.10;99.90
76567;DHT22;65428;53.194;6.132;2023-11-18T07:35:46;5.30;99.90
76567;DHT22;65428;53.194;6.132;2023-11-18T07:38:13;5.40;99.90
76567;DHT22;65428;53.194;6.132;2023-11-18T07:40:40;5.50;99.90
76567;DHT22;65428;53.194;6.132;2023-11-18T07:43:20;5.20;99.90
76567;DHT22;65428;53.194;6.132;2023-11-18T07:45:47;5.50;99.90
76567;DHT22;65428;53.194;6.132;2023-11-18T07:48:16;5.20;99.90
76567;DHT22;65428;53.194;6.132;2023-11-18T07:50:43;5.40;99.90
76567;DHT22;65428;53.194;6.132;2023-11-18T07:53:11;5.30;99.90
76567;DHT22;65428;53.194;6.132;2023-11-18T07:55:37;5.30;99.90
76567;DHT22;65428;53.194;6.132;2023-11-18T07:58:07;5.80;99.90
76567;DHT22;65428;53.194;6.132;2023-11-18T08:00:40;5.30;99.90
76567;DHT22;65428;53.194;6.132;2023-11-18T08:03:09;5.40;99.90
76567;DHT22;65428;53.194;6.132;2023-11-18T08:05:44;5.40;99.90
76567;DHT22;65428;53.194;6.132;2023-11-18T08:08:11;5.50;99.90
76567;DHT22;65428;53.194;6.132;2023-11-18T08:10:38;5.50;99.90
76567;DHT22;65428;53.194;6.132;2023-11-18T08:13:08;5.70;99.90
76567;DHT22;65428;53.194;6.132;2023-11-18T08:15:34;5.70;99.90
76567;DHT22;65428;53.194;6.132;2023-11-18T08:18:01;5.50;99.90
76567;DHT22;65428;53.194;6.132;2023-11-18T08:20:27;5.60;99.90
76567;DHT22;65428;53.194;6.132;2023-11-18T08:22:52;5.90;99.90
76567;DHT22;65428;53.194;6.132;2023-11-18T08:25:18;5.60;99.90
76567;DHT22;65428;53.194;6.132;2023-11-18T08:27:44;5.70;99.90
76567;DHT22;65428;53.194;6.132;2023-11-18T08:30:11;5.60;99.90
76567;DHT22;65428;53.194;6.132;2023-11-18T08:32:39;5.70;99.90
76567;DHT22;65428;53.194;6.132;2023-11-18T08:35:06;5.70;99.90
76567;DHT22;65428;53.194;6.132;2023-11-18T08:37:36;5.70;99.90
76567;DHT22;65428;53.194;6.132;2023-11-18T08:40:07;5.80;99.90
76567;DHT22;65428;53.194;6.132;2023-11-18T08:42:49;5.90;99.90
76567;DHT22;65428;53.194;6.132;2023-11-18T08:45:23;5.70;99.90
76567;DHT22;65428;53.194;6.132;2023-11-18T08:47:57;6.00;99.90
76567;DHT22;65428;53.194;6.132;2023-11-18T08:50:24;5.90;99.90
76567;DHT22;65428;53.194;6.132;2023-11-18T08:52:53;5.80;99.90
76567;DHT22;65428;53.194;6.132;2023-11-18T08:55:23;5.90;99.90
76567;DHT22;65428;53.194;6.132;2023-11-18T08:57:59;5.90;99.90
76567;DHT22;65428;53.194;6.132;2023-11-18T09:00:31;5.80;99.90
76567;DHT22;65428;53.194;6.132;2023-11-18T09:03:20;6.20;99.90
76567;DHT22;65428;53.194;6.132;2023-11-18T09:06:06;5.90;99.90
76567;DHT22;65428;53.194;6.132;2023-11-18T09:08:43;5.90;99.90
76567;DHT22;65428;53.194;6.132;2023-11-18T09:11:11;5.90;99.90
76567;DHT22;65428;53.194;6.132;2023-11-18T09:13:37;6.00;99.90
76567;DHT22;65428;53.194;6.132;2023-11-18T09:16:05;6.10;99.90
76567;DHT22;65428;53.194;6.132;2023-11-18T09:18:39;6.00;99.90
76567;DHT22;65428;53.194;6.132;2023-11-18T09:21:06;6.00;99.90
76567;DHT22;65428;53.194;6.132;2023-11-18T09:23:33;6.10;99.90
76567;DHT22;65428;53.194;6.132;2023-11-18T09:26:04;6.20;99.90
76567;DHT22;65428;53.194;6.132;2023-11-18T09:28:36;6.20;99.90
76567;DHT22;65428;53.194;6.132;2023-11-18T09:31:03;6.20;99.90
76567;DHT22;65428;53.194;6.132;2023-11-18T09:33:31;6.20;99.90
76567;DHT22;65428;53.194;6.132;2023-11-18T09:36:01;6.30;99.90
76567;DHT22;65428;53.194;6.132;2023-11-18T09:38:28;6.30;99.90
76567;DHT22;65428;53.194;6.132;2023-11-18T09:40:56;6.10;99.90
76567;DHT22;65428;53.194;6.132;2023-11-18T09:43:24;6.40;99.90
76567;DHT22;65428;53.194;6.132;2023-11-18T09:45:57;6.40;99.90
76567;DHT22;65428;53.194;6.132;2023-11-18T09:48:29;6.40;99.90
76567;DHT22;65428;53.194;6.132;2023-11-18T09:50:56;6.60;99.90
76567;DHT22;65428;53.194;6.132;2023-11-18T09:53:23;6.40;99.90
76567;DHT22;65428;53.194;6.132;2023-11-18T09:56:07;6.40;99.90
76567;DHT22;65428;53.194;6.132;2023-11-18T09:58:48;6.50;99.90
76567;DHT22;65428;53.194;6.132;2023-11-18T10:01:21;6.70;99.90
76567;DHT22;65428;53.194;6.132;2023-11-18T10:03:51;6.50;99.90
76567;DHT22;65428;53.194;6.132;2023-11-18T10:06:18;6.80;99.90
76567;DHT22;65428;53.194;6.132;2023-11-18T10:08:47;6.70;99.90
76567;DHT22;65428;53.194;6.132;2023-11-18T10:11:18;6.60;99.90
76567;DHT22;65428;53.194;6.132;2023-11-18T10:13:51;6.60;99.90
76567;DHT22;65428;53.194;6.132;2023-11-18T10:16:16;6.50;99.90
76567;DHT22;65428;53.194;6.132;2023-11-18T10:18:45;6.60;99.90
76567;DHT22;65428;53.194;6.132;2023-11-18T10:21:15;7.00;99.90
76567;DHT22;65428;53.194;6.132;2023-11-18T10:23:59;6.60;99.90
76567;DHT22;65428;53.194;6.132;2023-11-18T10:26:27;6.40;99.90
76567;DHT22;65428;53.194;6.132;2023-11-18T10:28:55;6.50;99.90
76567;DHT22;65428;53.194;6.132;2023-11-18T10:31:28;6.40;99.90
76567;DHT22;65428;53.194;6.132;2023-11-18T10:33:56;6.60;99.90
76567;DHT22;65428;53.194;6.132;2023-11-18T10:36:22;6.40;99.90
76567;DHT22;65428;53.194;6.132;2023-11-18T10:38:49;6.60;99.90
76567;DHT22;65428;53.194;6.132;2023-11-18T10:41:18;6.30;99.90
76567;DHT22;65428;53.194;6.132;2023-11-18T10:43:47;6.40;99.90
76567;DHT22;65428;53.194;6.132;2023-11-18T10:46:16;6.40;99.90
76567;DHT22;65428;53.194;6.132;2023-11-18T10:48:43;6.50;99.90
76567;DHT22;65428;53.194;6.132;2023-11-18T10:51:10;6.40;99.90
76567;DHT22;65428;53.194;6.132;2023-11-18T10:53:38;6.50;99.90
76567;DHT22;65428;53.194;6.132;2023-11-18T10:56:05;6.50;99.90
76567;DHT22;65428;53.194;6.132;2023-11-18T10:58:37;6.50;99.90
76567;DHT22;65428;53.194;6.132;2023-11-18T11:01:06;6.50;99.90
76567;DHT22;65428;53.194;6.132;2023-11-18T11:03:55;6.50;99.90
76567;DHT22;65428;53.194;6.132;2023-11-18T11:06:27;6.50;99.90
76567;DHT22;65428;53.194;6.132;2023-11-18T11:08:58;6.30;99.90
76567;DHT22;65428;53.194;6.132;2023-11-18T11:11:26;6.60;99.90
76567;DHT22;65428;53.194;6.132;2023-11-18T11:13:58;6.50;99.90
76567;DHT22;65428;53.194;6.132;2023-11-18T11:16:37;6.60;99.90
76567;DHT22;65428;53.194;6.132;2023-11-18T11:19:16;6.50;99.90
76567;DHT22;65428;53.194;6.132;2023-11-18T11:21:55;6.50;99.90
76567;DHT22;65428;53.194;6.132;2023-11-18T11:24:33;6.50;99.90
76567;DHT22;65428;53.194;6.132;2023-11-18T11:27:15;6.40;99.90
76567;DHT22;65428;53.194;6.132;2023-11-18T11:29:59;6.30;99.90
76567;DHT22;65428;53.194;6.132;2023-11-18T11:32:39;6.40;99.90
76567;DHT22;65428;53.194;6.132;2023-11-18T11:35:16;6.60;99.90
76567;DHT22;65428;53.194;6.132;2023-11-18T11:37:46;6.50;99.90
76567;DHT22;65428;53.194;6.132;2023-11-18T11:40:14;6.50;99.90
76567;DHT22;65428;53.194;6.132;2023-11-18T11:42:49;6.40;99.90
76567;DHT22;65428;53.194;6.132;2023-11-18T11:45:21;6.40;99.90
76567;DHT22;65428;53.194;6.132;2023-11-18T11:47:51;6.50;99.90
76567;DHT22;65428;53.194;6.132;2023-11-18T11:50:27;6.30;99.90
76567;DHT22;65428;53.194;6.132;2023-11-18T11:53:05;6.30;99.90
76567;DHT22;65428;53.194;6.132;2023-11-18T11:55:52;6.30;99.90
76567;DHT22;65428;53.194;6.132;2023-11-18T11:58:29;6.40;99.90
76567;DHT22;65428;53.194;6.132;2023-11-18T12:01:14;6.60;99.90
76567;DHT22;65428;53.194;6.132;2023-11-18T12:03:43;6.30;99.90
76567;DHT22;65428;53.194;6.132;2023-11-18T12:06:17;6.50;99.90
76567;DHT22;65428;53.194;6.132;2023-11-18T12:08:46;6.30;99.90
76567;DHT22;65428;53.194;6.132;2023-11-18T12:11:17;6.40;99.90
76567;DHT22;65428;53.194;6.132;2023-11-18T12:14:01;6.10;99.90
76567;DHT22;65428;53.194;6.132;2023-11-18T12:17:04;6.30;99.90
76567;DHT22;65428;53.194;6.132;2023-11-18T12:19:35;6.30;99.90
76567;DHT22;65428;53.194;6.132;2023-11-18T12:22:24;6.20;99.90
76567;DHT22;65428;53.194;6.132;2023-11-18T12:27:43;6.30;99.90
76567;DHT22;65428;53.194;6.132;2023-11-18T12:35:22;6.70;99.90
76567;DHT22;65428;53.194;6.132;2023-11-18T12:40:54;6.40;99.90
76567;DHT22;65428;53.194;6.132;2023-11-18T12:43:47;6.30;99.90
76567;DHT22;65428;53.194;6.132;2023-11-18T12:46:49;6.30;99.90
76567;DHT22;65428;53.194;6.132;2023-11-18T12:49:16;6.20;99.90
76567;DHT22;65428;53.194;6.132;2023-11-18T12:51:43;6.80;99.90
76567;DHT22;65428;53.194;6.132;2023-11-18T12:54:11;6.30;99.90
76567;DHT22;65428;53.194;6.132;2023-11-18T12:56:38;6.10;99.90
76567;DHT22;65428;53.194;6.132;2023-11-18T12:59:09;6.20;99.90
76567;DHT22;65428;53.194;6.132;2023-11-18T13:01:38;6.50;99.90
76567;DHT22;65428;53.194;6.132;2023-11-18T13:04:07;6.20;99.90
76567;DHT22;65428;53.194;6.132;2023-11-18T13:06:34;6.30;99.90
76567;DHT22;65428;53.194;6.132;2023-11-18T13:09:00;6.40;99.90
76567;DHT22;65428;53.194;6.132;2023-11-18T13:11:31;6.30;99.90
76567;DHT22;65428;53.194;6.132;2023-11-18T13:13:59;6.30;99.90
76567;DHT22;65428;53.194;6.132;2023-11-18T13:16:25;6.60;99.90
76567;DHT22;65428;53.194;6.132;2023-11-18T13:18:51;6.30;99.90
76567;DHT22;65428;53.194;6.132;2023-11-18T13:21:28;6.20;99.90
76567;DHT22;65428;53.194;6.132;2023-11-18T13:23:56;6.40;99.90
76567;DHT22;65428;53.194;6.132;2023-11-18T13:26:25;6.10;99.90
76567;DHT22;65428;53.194;6.132;2023-11-18T13:28:51;6.40;99.90
76567;DHT22;65428;53.194;6.132;2023-11-18T13:31:17;6.20;99.90
76567;DHT22;65428;53.194;6.132;2023-11-18T13:33:49;6.30;99.90
76567;DHT22;65428;53.194;6.132;2023-11-18T13:36:15;6.50;99.90
76567;DHT22;65428;53.194;6.132;2023-11-18T13:38:41;6.30;99.90
76567;DHT22;65428;53.194;6.132;2023-11-18T13:41:07;6.40;99.90
76567;DHT22;65428;53.194;6.132;2023-11-18T13:43:45;6.30;99.90
76567;DHT22;65428;53.194;6.132;2023-11-18T13:46:21;6.50;99.90
76567;DHT22;65428;53.194;6.132;2023-11-18T13:48:47;6.40;99.90
76567;DHT22;65428;53.194;6.132;2023-11-18T13:51:18;6.30;99.90
76567;DHT22;65428;53.194;6.132;2023-11-18T13:53:55;6.30;99.90
76567;DHT22;65428;53.194;6.132;2023-11-18T13:56:22;6.30;99.90
76567;DHT22;65428;53.194;6.132;2023-11-18T13:58:51;6.80;99.90
76567;DHT22;65428;53.194;6.132;2023-11-18T14:01:33;6.30;99.90
76567;DHT22;65428;53.194;6.132;2023-11-18T14:04:15;6.30;99.90
76567;DHT22;65428;53.194;6.132;2023-11-18T14:06:41;6.30;99.90
76567;DHT22;65428;53.194;6.132;2023-11-18T14:09:07;6.30;99.90
76567;DHT22;65428;53.194;6.132;2023-11-18T14:11:36;6.40;99.90
76567;DHT22;65428;53.194;6.132;2023-11-18T14:14:05;6.70;99.90
76567;DHT22;65428;53.194;6.132;2023-11-18T14:16:36;6.30;99.90
76567;DHT22;65428;53.194;6.132;2023-11-18T14:19:08;6.40;99.90
76567;DHT22;65428;53.194;6.132;2023-11-18T14:21:34;6.20;99.90
76567;DHT22;65428;53.194;6.132;2023-11-18T14:23:59;6.40;99.90
76567;DHT22;65428;53.194;6.132;2023-11-18T14:26:28;6.70;99.90
76567;DHT22;65428;53.194;6.132;2023-11-18T14:28:55;6.40;99.90
76567;DHT22;65428;53.194;6.132;2023-11-18T14:31:21;6.40;99.90
76567;DHT22;65428;53.194;6.132;2023-11-18T14:33:48;6.50;99.90
76567;DHT22;65428;53.194;6.132;2023-11-18T14:36:14;6.50;99.90
76567;DHT22;65428;53.194;6.132;2023-11-18T14:38:40;6.40;99.90
76567;DHT22;65428;53.194;6.132;2023-11-18T14:41:09;6.60;99.90
76567;DHT22;65428;53.194;6.132;2023-11-18T14:43:37;6.40;99.90
76567;DHT22;65428;53.194;6.132;2023-11-18T14:46:07;6.40;99.90
76567;DHT22;65428;53.194;6.132;2023-11-18T14:48:36;6.50;99.90
76567;DHT22;65428;53.194;6.132;2023-11-18T14:51:06;6.50;99.90
76567;DHT22;65428;53.194;6.132;2023-11-18T14:53:35;6.50;99.90
76567;DHT22;65428;53.194;6.132;2023-11-18T14:56:07;7.00;99.90
76567;DHT22;65428;53.194;6.132;2023-11-18T14:58:35;6.60;99.90
76567;DHT22;65428;53.194;6.132;2023-11-18T15:01:01;6.30;99.90
76567;DHT22;65428;53.194;6.132;2023-11-18T15:03:30;6.50;99.90
76567;DHT22;65428;53.194;6.132;2023-11-18T15:05:56;6.60;99.90
76567;DHT22;65428;53.194;6.132;2023-11-18T15:08:22;6.60;99.90
76567;DHT22;65428;53.194;6.132;2023-11-18T15:10:48;6.70;99.90
76567;DHT22;65428;53.194;6.132;2023-11-18T15:13:19;6.50;99.90
76567;DHT22;65428;53.194;6.132;2023-11-18T15:15:47;6.70;99.90
76567;DHT22;65428;53.194;6.132;2023-11-18T15:18:14;6.50;99.90
76567;DHT22;65428;53.194;6.132;2023-11-18T15:20:47;6.50;99.90
76567;DHT22;65428;53.194;6.132;2023-11-18T15:23:22;6.80;99.90
76567;DHT22;65428;53.194;6.132;2023-11-18T15:25:48;6.70;99.90
76567;DHT22;65428;53.194;6.132;2023-11-18T15:28:17;6.60;99.90
76567;DHT22;65428;53.194;6.132;2023-11-18T15:30:44;6.40;99.90
76567;DHT22;65428;53.194;6.132;2023-11-18T15:33:10;6.70;99.90
76567;DHT22;65428;53.194;6.132;2023-11-18T15:35:39;6.70;99.90
76567;DHT22;65428;53.194;6.132;2023-11-18T15:38:07;6.70;99.90
76567;DHT22;65428;53.194;6.132;2023-11-18T15:40:36;6.60;99.90
76567;DHT22;65428;53.194;6.132;2023-11-18T15:43:03;6.40;99.90
76567;DHT22;65428;53.194;6.132;2023-11-18T15:45:31;6.50;99.90
76567;DHT22;65428;53.194;6.132;2023-11-18T15:48:01;6.10;99.90
76567;DHT22;65428;53.194;6.132;2023-11-18T15:50:31;6.50;99.90
76567;DHT22;65428;53.194;6.132;2023-11-18T15:52:57;6.50;99.90
76567;DHT22;65428;53.194;6.132;2023-11-18T15:55:23;6.50;99.90
76567;DHT22;65428;53.194;6.132;2023-11-18T15:57:53;6.50;99.90
76567;DHT22;65428;53.194;6.132;2023-11-18T16:03:05;6.60;99.90
76567;DHT22;65428;53.194;6.132;2023-11-18T16:05:34;6.60;99.90
76567;DHT22;65428;53.194;6.132;2023-11-18T16:08:03;6.60;99.90
76567;DHT22;65428;53.194;6.132;2023-11-18T16:10:29;6.60;99.90
76567;DHT22;65428;53.194;6.132;2023-11-18T16:12:59;6.60;99.90
76567;DHT22;65428;53.194;6.132;2023-11-18T16:15:27;6.60;99.90